Time;durP1;ratioP1;P1;durP2;ratioP2;P2;SDS_P1;SDS_P2;PMS_P1;PMS_P2;Temp;Humidity;BMP_temperature;BMP_pressure;BME280_temperature;BME280_humidity;BME280_pressure;Samples;Min_cycle;Max_cycle;Signal;HPM_P1;HPM_P2
2022/03/16 00:02:42;;;;;;;5.50;1.20;;;9.30;99.90;;;;;;6213945;23;20207;-91
2022/03/16 00:13:17;;;;;;;3.00;0.77;;;9.40;99.90;;;;;;6217059;23;20198;-92
2022/03/16 00:15:48;;;;;;;5.90;1.30;;;9.50;99.90;;;;;;6240688;23;20160;-92
2022/03/16 00:18:21;;;;;;;64.83;7.47;;;9.30;99.90;;;;;;6214358;23;20168;-91
2022/03/16 00:20:52;;;;;;;5.53;1.07;;;9.30;99.90;;;;;;6242218;23;20152;-93
2022/03/16 00:23:25;;;;;;;3.80;0.90;;;9.20;99.90;;;;;;6241895;23;20195;-90
2022/03/16 00:25:57;;;;;;;2.43;0.90;;;9.50;99.90;;;;;;6213004;23;20169;-92
2022/03/16 00:28:32;;;;;;;2.80;1.10;;;9.60;99.90;;;;;;6236486;23;20720;-93
2022/03/16 00:31:05;;;;;;;2.53;0.77;;;9.50;99.90;;;;;;6237235;23;20191;-93
2022/03/16 00:33:38;;;;;;;3.37;1.67;;;9.30;99.90;;;;;;6240037;23;20153;-92
2022/03/16 00:36:09;;;;;;;5.10;0.90;;;9.40;99.90;;;;;;6213569;23;20176;-93
2022/03/16 00:38:42;;;;;;;4.47;0.90;;;9.40;99.90;;;;;;6237278;23;20533;-92
2022/03/16 00:41:13;;;;;;;2.53;0.93;;;9.40;99.90;;;;;;6239990;23;20206;-93
2022/03/16 00:43:46;;;;;;;4.23;0.87;;;9.40;99.90;;;;;;6238098;23;20176;-93
2022/03/16 00:46:18;;;;;;;3.07;1.00;;;9.30;99.90;;;;;;6236693;23;20176;-93
2022/03/16 00:48:49;;;;;;;3.03;1.00;;;9.20;99.90;;;;;;6234903;23;20184;-92
2022/03/16 00:51:21;;;;;;;3.80;0.80;;;9.10;99.90;;;;;;6212971;23;20192;-92
2022/03/16 00:53:52;;;;;;;1.90;0.63;;;9.00;99.90;;;;;;6237751;23;20199;-92
2022/03/16 00:56:24;;;;;;;2.17;0.60;;;9.00;99.90;;;;;;6235959;23;20211;-93
2022/03/16 00:58:57;;;;;;;2.87;0.70;;;8.80;99.90;;;;;;6238960;23;20188;-92
2022/03/16 01:01:28;;;;;;;3.83;0.90;;;8.70;99.90;;;;;;6214713;23;20639;-92
2022/03/16 01:04:00;;;;;;;7.07;1.23;;;8.70;99.90;;;;;;6238769;23;20226;-93
2022/03/16 01:11:49;;;;;;;3.17;0.90;;;8.70;99.90;;;;;;6238876;22;20441;-92
2022/03/16 01:14:23;;;;;;;4.00;0.80;;;8.70;99.90;;;;;;6236066;23;20169;-92
2022/03/16 01:16:54;;;;;;;7.10;0.90;;;8.60;99.90;;;;;;6210268;23;20168;-93
2022/03/16 01:19:26;;;;;;;5.90;1.00;;;8.60;99.90;;;;;;6234409;23;20197;-92
2022/03/16 01:21:58;;;;;;;3.20;0.90;;;8.60;99.90;;;;;;6235226;23;20168;-94
2022/03/16 01:24:29;;;;;;;6.10;0.97;;;8.60;99.90;;;;;;6236276;23;20173;-93
2022/03/16 01:27:01;;;;;;;4.97;1.23;;;8.60;99.90;;;;;;6234108;23;20164;-94
2022/03/16 01:29:35;;;;;;;4.90;1.30;;;8.60;99.90;;;;;;6235693;23;20168;-92
2022/03/16 01:32:07;;;;;;;6.17;1.20;;;8.60;99.90;;;;;;6235538;23;20191;-94
2022/03/16 01:34:38;;;;;;;6.27;1.30;;;8.50;99.90;;;;;;6234955;23;20199;-92
2022/03/16 01:37:10;;;;;;;6.97;1.67;;;8.50;99.90;;;;;;6236601;23;20182;-93
2022/03/16 01:39:42;;;;;;;9.00;1.57;;;8.50;99.90;;;;;;6239609;23;20179;-93
2022/03/16 01:42:15;;;;;;;9.57;1.33;;;8.50;99.90;;;;;;6233095;23;20219;-93
2022/03/16 01:44:50;;;;;;;5.33;1.40;;;8.60;99.90;;;;;;6235115;23;20183;-92
2022/03/16 01:47:24;;;;;;;5.30;1.37;;;8.60;99.90;;;;;;6221160;23;20208;-92
2022/03/16 01:49:56;;;;;;;7.40;1.27;;;8.60;99.90;;;;;;6221373;23;20173;-92
2022/03/16 01:52:29;;;;;;;7.77;1.97;;;8.50;99.90;;;;;;6195415;23;20203;-92
2022/03/16 01:55:04;;;;;;;4.73;1.40;;;8.50;99.90;;;;;;6224586;23;20204;-91
2022/03/16 01:57:36;;;;;;;4.17;1.23;;;8.50;99.90;;;;;;6221931;23;20255;-92
2022/03/16 02:00:12;;;;;;;8.10;1.60;;;8.50;99.90;;;;;;6221423;23;20192;-93
2022/03/16 02:02:43;;;;;;;3.80;1.47;;;8.50;99.90;;;;;;6221082;23;20176;-93
2022/03/16 02:05:16;;;;;;;6.57;1.47;;;8.50;99.90;;;;;;6221425;23;20165;-93
2022/03/16 02:07:48;;;;;;;9.13;1.50;;;8.40;99.90;;;;;;6221019;23;20526;-91
2022/03/16 02:10:20;;;;;;;7.73;1.70;;;8.40;99.90;;;;;;6221738;23;20683;-92
2022/03/16 02:12:52;;;;;;;4.80;1.20;;;8.40;99.90;;;;;;6229400;23;20203;-92
2022/03/16 02:15:26;;;;;;;4.50;1.40;;;8.40;99.90;;;;;;6238267;23;20191;-92
2022/03/16 02:17:57;;;;;;;8.83;1.63;;;8.40;99.90;;;;;;6243347;23;20168;-93
2022/03/16 02:20:28;;;;;;;7.43;1.53;;;8.40;99.90;;;;;;6244528;23;20200;-92
2022/03/16 02:23:05;;;;;;;6.47;1.63;;;8.30;99.90;;;;;;6244207;23;20157;-92
2022/03/16 02:25:49;;;;;;;4.70;1.10;;;8.30;99.90;;;;;;6232029;23;20176;-92
2022/03/16 02:28:20;;;;;;;7.13;1.50;;;8.30;99.90;;;;;;6211471;23;20169;-93
2022/03/16 02:30:54;;;;;;;5.60;1.30;;;8.20;99.90;;;;;;6238568;23;20160;-91
2022/03/16 02:33:27;;;;;;;4.97;1.10;;;8.20;99.90;;;;;;6238290;23;20354;-92
2022/03/16 02:35:59;;;;;;;4.50;1.07;;;8.20;99.90;;;;;;6236001;23;20177;-94
2022/03/16 02:38:33;;;;;;;4.47;1.20;;;8.10;99.90;;;;;;6236637;23;20181;-92
2022/03/16 02:41:05;;;;;;;6.87;1.20;;;8.10;99.90;;;;;;6236583;23;20180;-92
2022/03/16 02:43:36;;;;;;;3.17;1.20;;;8.00;99.90;;;;;;6235849;23;20172;-93
2022/03/16 02:46:15;;;;;;;5.63;1.07;;;7.90;99.90;;;;;;6235602;23;20183;-93
2022/03/16 02:48:47;;;;;;;11.57;2.20;;;7.90;99.90;;;;;;6235285;23;20180;-93
2022/03/16 02:51:19;;;;;;;7.33;1.70;;;7.90;99.90;;;;;;6235928;23;20172;-92
2022/03/16 02:53:52;;;;;;;6.03;1.80;;;7.80;99.90;;;;;;6212802;23;20235;-94
2022/03/16 02:56:27;;;;;;;9.47;1.40;;;7.70;99.90;;;;;;6236214;23;20168;-93
2022/03/16 02:58:58;;;;;;;5.97;1.50;;;7.70;99.90;;;;;;6237428;23;20175;-92
2022/03/16 03:01:30;;;;;;;3.90;1.40;;;7.70;99.90;;;;;;6238621;23;20164;-92
2022/03/16 03:04:03;;;;;;;6.93;1.30;;;7.60;99.90;;;;;;6241794;23;20162;-92
2022/03/16 03:06:33;;;;;;;5.97;1.33;;;7.60;99.90;;;;;;6242476;23;20195;-92
2022/03/16 03:09:16;;;;;;;7.97;1.93;;;7.50;99.90;;;;;;6241161;23;20179;-93
2022/03/16 03:11:52;;;;;;;8.33;1.53;;;7.50;99.90;;;;;;6217039;23;20168;-93
2022/03/16 03:14:25;;;;;;;8.60;1.87;;;7.50;99.90;;;;;;6241657;23;20199;-94
2022/03/16 03:16:59;;;;;;;5.03;1.27;;;7.50;99.90;;;;;;6241266;23;20171;-93
2022/03/16 03:19:32;;;;;;;10.10;1.67;;;7.50;99.90;;;;;;6242232;23;20228;-93
2022/03/16 03:22:09;;;;;;;10.20;1.80;;;7.40;99.90;;;;;;6241802;23;20184;-92
2022/03/16 03:24:44;;;;;;;9.77;1.70;;;7.40;99.90;;;;;;6241083;23;20161;-93
2022/03/16 03:27:16;;;;;;;9.10;1.53;;;7.40;99.90;;;;;;6241071;23;20176;-93
2022/03/16 03:29:48;;;;;;;5.77;1.80;;;7.40;99.90;;;;;;6241866;23;20172;-94
2022/03/16 03:32:21;;;;;;;8.33;1.77;;;7.30;99.90;;;;;;6241124;23;20191;-92
2022/03/16 03:34:55;;;;;;;8.50;1.93;;;7.30;99.90;;;;;;6235987;23;20168;-93
2022/03/16 03:37:28;;;;;;;11.87;2.27;;;7.30;99.90;;;;;;6233530;23;20169;-94
2022/03/16 03:40:02;;;;;;;7.07;1.57;;;7.30;99.90;;;;;;6240107;23;20171;-93
2022/03/16 03:42:34;;;;;;;6.70;2.00;;;7.30;99.90;;;;;;6215092;23;20168;-92
2022/03/16 03:45:07;;;;;;;11.33;2.00;;;7.20;99.90;;;;;;6239990;23;20164;-93
2022/03/16 03:47:38;;;;;;;9.43;2.13;;;7.20;99.90;;;;;;6238300;23;20179;-92
2022/03/16 03:50:11;;;;;;;8.30;2.20;;;7.30;99.90;;;;;;6212709;23;20199;-92
2022/03/16 03:52:42;;;;;;;12.23;1.80;;;7.30;99.90;;;;;;6207447;23;20192;-92
2022/03/16 03:55:18;;;;;;;12.47;2.53;;;7.30;99.90;;;;;;6231964;23;20175;-93
2022/03/16 03:57:50;;;;;;;9.53;2.23;;;7.30;99.90;;;;;;6240060;23;20176;-90
2022/03/16 04:00:22;;;;;;;7.73;1.50;;;7.30;99.90;;;;;;6242500;23;20181;-92
2022/03/16 04:05:35;;;;;;;9.43;1.67;;;7.40;99.90;;;;;;6241712;23;20259;-92
2022/03/16 04:08:07;;;;;;;10.57;2.80;;;7.40;99.90;;;;;;6240564;23;20180;-93
2022/03/16 04:10:40;;;;;;;10.73;2.07;;;7.40;99.90;;;;;;6235170;23;20180;-92
2022/03/16 04:13:13;;;;;;;10.63;1.90;;;7.40;99.90;;;;;;6215337;23;20183;-93
2022/03/16 04:15:47;;;;;;;7.53;1.80;;;7.40;99.90;;;;;;6212037;23;20164;-94
2022/03/16 04:18:18;;;;;;;11.27;2.20;;;7.50;99.90;;;;;;6235198;23;20196;-92
2022/03/16 04:20:50;;;;;;;8.53;2.00;;;7.50;99.90;;;;;;6236382;23;20168;-93
2022/03/16 04:23:24;;;;;;;10.97;2.13;;;7.50;99.90;;;;;;6241446;23;20160;-93
2022/03/16 04:25:58;;;;;;;9.87;2.30;;;7.50;99.90;;;;;;6216556;23;20176;-93
2022/03/16 04:28:29;;;;;;;9.27;2.03;;;7.50;99.90;;;;;;6236080;23;20199;-94
2022/03/16 04:31:01;;;;;;;7.77;1.80;;;7.50;99.90;;;;;;6234455;23;20169;-93
2022/03/16 04:33:33;;;;;;;11.13;1.90;;;7.50;99.90;;;;;;6237181;23;20526;-93
2022/03/16 04:36:05;;;;;;;17.63;2.33;;;7.40;99.90;;;;;;6240376;23;20187;-93
2022/03/16 04:38:37;;;;;;;11.03;1.97;;;7.50;99.90;;;;;;6208295;22;20196;-92
2022/03/16 04:41:12;;;;;;;9.57;2.10;;;7.50;99.90;;;;;;6242176;22;20187;-91
2022/03/16 04:43:43;;;;;;;12.13;2.53;;;7.40;99.90;;;;;;6234542;23;20183;-93
2022/03/16 04:46:14;;;;;;;8.43;2.20;;;7.40;99.90;;;;;;6239319;23;20164;-94
2022/03/16 04:48:46;;;;;;;10.90;2.20;;;7.50;99.90;;;;;;6234538;23;20550;-93
2022/03/16 04:51:17;;;;;;;12.30;2.50;;;7.50;99.90;;;;;;6234442;23;20214;-91
2022/03/16 04:53:48;;;;;;;11.30;2.67;;;7.50;99.90;;;;;;6235723;23;20196;-92
2022/03/16 04:56:22;;;;;;;9.73;2.50;;;7.50;99.90;;;;;;6235294;23;20185;-93
2022/03/16 04:58:53;;;;;;;7.07;1.73;;;7.50;99.90;;;;;;6237719;23;20196;-93
2022/03/16 05:01:24;;;;;;;7.67;1.90;;;7.50;99.90;;;;;;6232015;22;20180;-94
2022/03/16 05:03:56;;;;;;;9.80;1.73;;;7.50;99.90;;;;;;6234161;23;20157;-92
2022/03/16 05:06:27;;;;;;;9.70;1.70;;;7.50;99.90;;;;;;6236281;23;20183;-94
2022/03/16 05:08:58;;;;;;;5.33;1.73;;;7.50;99.90;;;;;;6220907;23;20188;-92
2022/03/16 05:11:31;;;;;;;9.93;1.83;;;7.60;99.90;;;;;;6220881;23;20180;-93
2022/03/16 05:14:02;;;;;;;6.50;1.73;;;7.60;99.90;;;;;;6228362;23;20207;-94
2022/03/16 05:16:33;;;;;;;6.23;1.80;;;7.50;99.90;;;;;;6239899;22;20176;-91
2022/03/16 05:19:05;;;;;;;8.40;3.70;;;7.50;99.90;;;;;;6238589;23;20164;-94
2022/03/16 05:21:36;;;;;;;12.43;2.13;;;7.40;99.90;;;;;;6239513;23;20160;-95
2022/03/16 05:24:08;;;;;;;11.13;2.00;;;7.40;99.90;;;;;;6240663;23;20180;-92
2022/03/16 05:26:41;;;;;;;8.30;1.70;;;7.40;99.90;;;;;;6241150;23;20167;-93
2022/03/16 05:29:12;;;;;;;9.33;1.90;;;7.40;99.90;;;;;;6229363;23;20500;-93
2022/03/16 05:31:45;;;;;;;7.97;1.63;;;7.40;99.90;;;;;;6236284;23;20183;-93
2022/03/16 05:34:18;;;;;;;4.97;1.70;;;7.30;99.90;;;;;;6237581;23;20209;-92
2022/03/16 05:36:49;;;;;;;9.43;1.77;;;7.30;99.90;;;;;;6237921;23;20184;-90
2022/03/16 05:42:13;;;;;;;10.67;1.70;;;7.20;99.90;;;;;;6223690;23;20212;-92
2022/03/16 05:44:44;;;;;;;8.37;1.87;;;7.20;99.90;;;;;;6236511;23;20177;-93
2022/03/16 05:47:16;;;;;;;9.33;1.73;;;7.20;99.90;;;;;;6198872;23;20195;-93
2022/03/16 05:49:48;;;;;;;8.27;1.97;;;7.20;99.90;;;;;;6222292;23;20179;-93
2022/03/16 05:52:21;;;;;;;8.93;1.60;;;7.20;99.90;;;;;;6225391;23;20228;-94
2022/03/16 05:54:52;;;;;;;9.57;1.80;;;7.10;99.90;;;;;;6237508;23;20215;-93
2022/03/16 05:57:25;;;;;;;8.40;1.50;;;7.10;99.90;;;;;;6226532;23;20200;-94
2022/03/16 05:59:57;;;;;;;8.17;2.00;;;7.00;99.90;;;;;;6242483;23;20168;-94
2022/03/16 06:02:27;;;;;;;9.03;1.93;;;7.00;99.90;;;;;;6241499;23;20168;-94
2022/03/16 06:05:00;;;;;;;6.30;1.73;;;7.00;99.90;;;;;;6243501;23;20176;-94
2022/03/16 06:07:31;;;;;;;8.07;1.90;;;7.00;99.90;;;;;;6243382;23;20183;-94
2022/03/16 06:10:03;;;;;;;7.73;1.80;;;6.90;99.90;;;;;;6211973;23;20172;-93
2022/03/16 06:12:50;;;;;;;10.63;2.07;;;6.90;99.90;;;;;;6210411;23;20225;-93
2022/03/16 06:15:21;;;;;;;10.97;2.07;;;6.90;99.90;;;;;;6232379;23;20556;-93
2022/03/16 06:17:53;;;;;;;6.97;2.07;;;6.90;99.90;;;;;;6229288;23;20182;-93
2022/03/16 06:20:24;;;;;;;11.93;2.00;;;6.90;99.90;;;;;;6224990;23;20183;-94
2022/03/16 06:22:56;;;;;;;14.80;2.20;;;6.90;99.90;;;;;;6225402;23;20176;-90
2022/03/16 06:25:28;;;;;;;10.33;1.83;;;6.80;99.90;;;;;;6226513;23;20180;-94
2022/03/16 06:28:03;;;;;;;11.07;1.90;;;6.80;99.90;;;;;;6205878;23;20172;-93
2022/03/16 06:30:36;;;;;;;9.73;1.80;;;6.80;99.90;;;;;;6232788;23;20179;-93
2022/03/16 06:33:09;;;;;;;12.30;2.00;;;6.80;99.90;;;;;;6210479;23;20191;-94
2022/03/16 06:35:53;;;;;;;11.07;2.23;;;6.80;99.90;;;;;;6194335;23;20184;-93
2022/03/16 06:38:25;;;;;;;12.03;2.37;;;6.70;99.90;;;;;;6233619;23;20252;-90
2022/03/16 06:40:56;;;;;;;11.87;2.73;;;6.70;99.90;;;;;;6230078;23;20187;-93
2022/03/16 06:43:29;;;;;;;9.87;2.10;;;6.70;99.90;;;;;;6230881;23;20172;-93
2022/03/16 06:46:01;;;;;;;8.50;1.80;;;6.70;99.90;;;;;;6232103;23;20168;-93
2022/03/16 06:48:37;;;;;;;10.53;2.47;;;6.80;99.90;;;;;;6234464;23;20168;-95
2022/03/16 06:51:09;;;;;;;10.47;2.43;;;6.80;99.90;;;;;;6242522;23;20183;-95
2022/03/16 06:53:41;;;;;;;7.93;1.93;;;6.80;99.90;;;;;;6243950;23;20167;-94
2022/03/16 06:56:12;;;;;;;4.93;1.73;;;6.80;99.90;;;;;;6237953;23;20176;-94
2022/03/16 06:58:45;;;;;;;9.27;1.90;;;6.90;99.90;;;;;;6230500;23;20176;-93
2022/03/16 07:01:17;;;;;;;11.77;2.23;;;6.90;99.90;;;;;;6238963;23;20182;-93
2022/03/16 07:03:49;;;;;;;8.60;1.70;;;6.90;99.90;;;;;;6236971;23;20223;-94
2022/03/16 07:08:51;;;;;;;5.97;1.53;;;6.90;99.90;;;;;;6240431;23;20248;-93
2022/03/16 07:11:22;;;;;;;7.47;4.67;;;6.90;99.90;;;;;;6220778;23;20193;-93
2022/03/16 07:16:45;;;;;;;7.47;1.70;;;6.90;99.90;;;;;;6222563;23;20172;-93
2022/03/16 07:19:17;;;;;;;4.80;1.37;;;6.90;99.90;;;;;;6223328;23;20560;-93
2022/03/16 07:21:48;;;;;;;6.80;1.87;;;6.80;99.90;;;;;;6231577;23;20192;-93
2022/03/16 07:24:19;;;;;;;6.23;1.70;;;6.90;99.90;;;;;;6242941;23;20227;-95
2022/03/16 07:26:50;;;;;;;8.23;1.70;;;6.80;99.90;;;;;;6241855;23;20195;-93
2022/03/16 07:29:24;;;;;;;7.87;1.90;;;6.80;99.90;;;;;;6242274;23;20160;-95
2022/03/16 07:31:55;;;;;;;7.83;1.70;;;6.80;99.90;;;;;;6207531;23;20539;-92
2022/03/16 07:34:27;;;;;;;8.47;1.80;;;6.80;99.90;;;;;;6234288;23;20212;-94
2022/03/16 07:36:59;;;;;;;11.00;2.30;;;6.80;99.90;;;;;;6233677;23;20176;-96
2022/03/16 07:39:30;;;;;;;7.50;1.90;;;6.90;99.90;;;;;;6242860;23;20160;-91
2022/03/16 07:42:02;;;;;;;9.77;1.93;;;6.90;99.90;;;;;;6243235;23;20167;-92
2022/03/16 07:44:34;;;;;;;8.53;1.87;;;6.90;99.90;;;;;;6243110;23;20181;-93
2022/03/16 07:47:07;;;;;;;7.00;1.70;;;6.80;99.90;;;;;;6242559;23;20184;-94
2022/03/16 07:49:38;;;;;;;7.37;2.30;;;6.90;99.90;;;;;;6242786;23;20172;-92
2022/03/16 07:52:10;;;;;;;10.83;1.87;;;6.80;99.90;;;;;;6243371;23;20176;-92
2022/03/16 07:54:41;;;;;;;10.53;1.83;;;6.90;99.90;;;;;;6243189;23;20177;-88
2022/03/16 07:57:12;;;;;;;7.30;2.20;;;6.80;99.90;;;;;;6242342;23;20184;-93
2022/03/16 07:59:46;;;;;;;4.40;1.47;;;6.80;99.90;;;;;;6242799;23;20156;-92
2022/03/16 08:02:18;;;;;;;10.93;1.97;;;6.80;99.90;;;;;;6241927;23;20169;-93
2022/03/16 08:04:48;;;;;;;9.23;2.13;;;6.80;99.90;;;;;;6242687;23;20255;-93
2022/03/16 08:07:20;;;;;;;7.80;2.03;;;6.80;99.90;;;;;;6241235;23;20176;-92
2022/03/16 08:09:51;;;;;;;9.57;1.80;;;6.80;99.90;;;;;;6238278;23;20168;-93
2022/03/16 08:12:22;;;;;;;7.93;1.83;;;6.80;99.90;;;;;;6237601;23;20148;-93
2022/03/16 08:14:56;;;;;;;10.73;2.30;;;6.80;99.90;;;;;;6237350;23;20190;-92
2022/03/16 08:17:27;;;;;;;9.83;2.23;;;6.80;99.90;;;;;;6227718;23;20192;-92
2022/03/16 08:19:58;;;;;;;13.70;2.50;;;6.80;99.90;;;;;;6227472;23;20250;-92
2022/03/16 08:22:31;;;;;;;12.97;2.30;;;6.80;99.90;;;;;;6227211;23;20203;-95
2022/03/16 08:25:05;;;;;;;9.90;2.00;;;6.70;99.90;;;;;;6231564;23;20172;-93
2022/03/16 08:27:37;;;;;;;12.77;2.37;;;6.80;99.90;;;;;;6232408;23;20180;-92
2022/03/16 08:30:26;;;;;;;11.63;2.20;;;6.70;99.90;;;;;;6230697;22;20200;-93
2022/03/16 08:32:59;;;;;;;8.67;2.00;;;6.70;99.90;;;;;;6237142;23;20181;-93
2022/03/16 08:35:30;;;;;;;8.97;1.90;;;6.80;99.90;;;;;;6236150;23;20197;-93
2022/03/16 08:38:01;;;;;;;14.33;2.40;;;6.80;99.90;;;;;;6233970;23;20172;-93
2022/03/16 08:40:33;;;;;;;17.00;2.37;;;6.70;99.90;;;;;;6228378;23;20202;-92
2022/03/16 08:43:05;;;;;;;11.53;2.30;;;6.70;99.90;;;;;;6223780;23;20184;-92
2022/03/16 08:45:41;;;;;;;10.47;2.77;;;6.70;99.90;;;;;;6220831;23;20238;-93
2022/03/16 08:48:13;;;;;;;11.07;2.33;;;6.70;99.90;;;;;;6221709;23;20176;-93
2022/03/16 08:50:44;;;;;;;8.60;1.93;;;6.70;99.90;;;;;;6221653;23;20188;-94
2022/03/16 08:53:15;;;;;;;6.13;1.83;;;6.70;99.90;;;;;;6198403;23;20533;-94
2022/03/16 08:55:46;;;;;;;9.57;2.03;;;6.70;99.90;;;;;;6223405;23;20287;-92
2022/03/16 08:58:17;;;;;;;7.03;1.83;;;6.70;99.90;;;;;;6223033;23;20176;-93
2022/03/16 09:00:50;;;;;;;11.30;2.20;;;6.70;99.90;;;;;;6228542;23;20173;-93
2022/03/16 09:03:21;;;;;;;10.60;2.30;;;6.70;99.90;;;;;;6241540;23;20208;-91
2022/03/16 09:05:54;;;;;;;6.20;2.63;;;6.70;99.90;;;;;;6242663;23;20191;-91
2022/03/16 09:08:25;;;;;;;7.30;2.17;;;6.70;99.90;;;;;;6237315;23;20179;-93
2022/03/16 09:10:57;;;;;;;8.33;1.57;;;6.70;99.90;;;;;;6226415;23;20503;-94
2022/03/16 09:13:28;;;;;;;7.83;2.40;;;6.70;99.90;;;;;;6223863;23;20211;-93
2022/03/16 09:16:01;;;;;;;10.70;2.43;;;6.60;99.90;;;;;;6172560;23;20258;-92
2022/03/16 09:18:34;;;;;;;10.07;2.47;;;6.60;99.90;;;;;;6222892;23;20180;-92
2022/03/16 09:21:04;;;;;;;5.53;1.80;;;6.60;99.90;;;;;;6225517;23;20178;-93
2022/03/16 09:23:36;;;;;;;10.80;1.73;;;6.70;99.90;;;;;;6222828;23;20188;-93
2022/03/16 09:26:07;;;;;;;11.20;2.20;;;6.70;99.90;;;;;;6222146;23;20180;-92
2022/03/16 09:28:38;;;;;;;7.47;2.00;;;6.70;99.90;;;;;;6236598;23;20184;-91
2022/03/16 09:31:11;;;;;;;14.53;3.20;;;6.60;99.90;;;;;;6213436;23;20176;-93
2022/03/16 09:33:42;;;;;;;8.40;2.00;;;6.60;99.90;;;;;;6239319;23;20173;-92
2022/03/16 09:36:12;;;;;;;14.73;1.93;;;6.60;99.90;;;;;;6225870;23;20291;-93
2022/03/16 09:38:43;;;;;;;11.50;1.97;;;6.60;99.90;;;;;;6225819;23;20176;-92
2022/03/16 09:41:16;;;;;;;11.00;2.43;;;6.60;99.90;;;;;;6225464;23;20275;-94
2022/03/16 09:43:47;;;;;;;7.40;2.50;;;6.60;99.90;;;;;;6201184;23;20228;-93
2022/03/16 09:46:26;;;;;;;5.50;1.57;;;6.50;99.90;;;;;;6225335;23;20165;-93
2022/03/16 09:48:58;;;;;;;10.20;1.90;;;6.50;99.90;;;;;;6224258;23;20199;-93
2022/03/16 09:51:31;;;;;;;11.63;2.10;;;6.50;99.90;;;;;;6225219;23;20497;-94
2022/03/16 09:54:03;;;;;;;8.90;1.97;;;6.50;99.90;;;;;;6226285;23;20619;-94
2022/03/16 09:56:35;;;;;;;13.30;1.97;;;6.40;99.90;;;;;;6227137;23;20219;-94
2022/03/16 09:59:06;;;;;;;6.37;1.83;;;6.40;99.90;;;;;;6225845;23;20254;-94
2022/03/16 10:01:39;;;;;;;10.57;2.10;;;6.40;99.90;;;;;;6225520;23;20175;-93
2022/03/16 10:04:10;;;;;;;10.33;1.80;;;6.40;99.90;;;;;;6226053;23;20176;-93
2022/03/16 10:06:42;;;;;;;9.07;2.03;;;6.40;99.90;;;;;;6224876;23;20631;-89
2022/03/16 10:15:04;;;;;;;6.27;2.20;;;6.50;99.90;;;;;;6224174;23;20176;-93
2022/03/16 10:17:46;;;;;;;10.60;1.97;;;6.50;99.90;;;;;;6222780;23;20195;-93
2022/03/16 10:20:26;;;;;;;9.73;2.03;;;6.50;99.90;;;;;;6224144;23;20180;-92
2022/03/16 10:23:00;;;;;;;7.53;1.70;;;6.40;99.90;;;;;;6223907;23;20174;-93
2022/03/16 10:25:34;;;;;;;6.70;1.50;;;6.40;99.90;;;;;;6224556;23;20169;-93
2022/03/16 10:28:16;;;;;;;8.60;1.77;;;6.40;99.90;;;;;;6223548;23;20176;-92
2022/03/16 10:31:08;;;;;;;10.33;1.70;;;6.40;99.90;;;;;;6224791;23;20187;-93
2022/03/16 10:33:50;;;;;;;12.97;2.30;;;6.40;99.90;;;;;;6221073;23;20199;-94
2022/03/16 10:36:22;;;;;;;14.73;2.20;;;6.40;99.90;;;;;;6225932;23;20200;-93
2022/03/16 10:38:58;;;;;;;6.63;1.80;;;6.50;99.90;;;;;;6225725;23;20169;-93
2022/03/16 10:47:13;;;;;;;11.43;2.50;;;6.40;99.90;;;;;;6224984;23;20173;-93
2022/03/16 10:49:49;;;;;;;11.37;2.00;;;6.40;99.90;;;;;;6225237;23;20494;-93
2022/03/16 10:52:21;;;;;;;8.00;1.53;;;6.30;99.90;;;;;;6224372;23;20519;-95
2022/03/16 10:54:54;;;;;;;4.30;1.47;;;6.40;99.90;;;;;;6224219;23;20226;-94
2022/03/16 10:57:26;;;;;;;8.00;1.33;;;6.40;99.90;;;;;;6198459;23;20639;-92
2022/03/16 11:00:00;;;;;;;11.37;1.70;;;6.40;99.90;;;;;;6198677;23;20621;-92
2022/03/16 11:02:34;;;;;;;7.27;1.80;;;6.40;99.90;;;;;;6224858;23;20168;-93
2022/03/16 11:05:08;;;;;;;8.47;1.53;;;6.40;99.90;;;;;;6226079;23;20171;-93
2022/03/16 11:07:40;;;;;;;10.57;1.70;;;6.40;99.90;;;;;;6226125;23;20275;-93
2022/03/16 11:10:12;;;;;;;7.23;1.87;;;6.40;99.90;;;;;;6227202;23;20195;-93
2022/03/16 11:15:31;;;;;;;11.87;1.90;;;6.40;99.90;;;;;;6232669;23;20163;-92
2022/03/16 11:18:03;;;;;;;5.40;2.00;;;6.40;99.90;;;;;;6240520;23;20204;-92
2022/03/16 11:20:36;;;;;;;7.00;1.53;;;6.40;99.90;;;;;;6214839;23;20205;-92
2022/03/16 11:26:21;;;;;;;12.43;1.53;;;6.40;99.90;;;;;;6224558;23;20190;-93
2022/03/16 11:29:03;;;;;;;6.93;1.60;;;6.40;99.90;;;;;;6225241;23;20218;-92
2022/03/16 11:31:35;;;;;;;6.17;1.67;;;6.40;99.90;;;;;;6236898;23;20220;-92
2022/03/16 11:34:10;;;;;;;7.90;1.60;;;6.40;99.90;;;;;;6238178;23;20196;-93
2022/03/16 11:36:44;;;;;;;8.87;1.73;;;6.50;99.90;;;;;;6233863;23;20209;-92
2022/03/16 11:39:20;;;;;;;8.13;1.67;;;6.40;99.90;;;;;;6239455;23;20168;-92
2022/03/16 11:41:52;;;;;;;8.77;1.57;;;6.40;99.90;;;;;;6240498;23;20180;-91
2022/03/16 11:44:32;;;;;;;10.83;2.10;;;6.40;99.90;;;;;;6234350;23;20180;-92
2022/03/16 11:47:44;;;;;;;8.87;1.70;;;6.40;99.90;;;;;;6225814;23;20165;-93
2022/03/16 11:50:20;;;;;;;11.47;1.80;;;6.40;99.90;;;;;;6220281;23;20176;-93
2022/03/16 11:53:17;;;;;;;6.77;1.57;;;6.40;99.90;;;;;;6225965;23;20176;-93
2022/03/16 11:55:50;;;;;;;8.10;1.90;;;6.40;99.90;;;;;;6226230;23;20172;-93
2022/03/16 11:58:28;;;;;;;9.77;2.00;;;6.30;99.90;;;;;;6224394;23;20220;-92
2022/03/16 12:01:24;;;;;;;7.87;1.50;;;6.30;99.90;;;;;;6225453;23;20211;-93
2022/03/16 12:04:08;;;;;;;11.10;1.70;;;6.30;99.90;;;;;;6199576;23;20169;-92
2022/03/16 12:06:54;;;;;;;8.17;1.40;;;6.40;99.90;;;;;;6225930;23;20171;-93
2022/03/16 12:09:38;;;;;;;7.50;1.70;;;6.30;99.90;;;;;;6225437;23;20251;-93
2022/03/16 12:15:23;;;;;;;7.03;1.57;;;6.20;99.90;;;;;;6239045;23;20168;-93
2022/03/16 12:18:20;;;;;;;10.10;1.80;;;6.10;99.90;;;;;;6237392;23;20208;-93
2022/03/16 12:20:56;;;;;;;8.20;1.63;;;6.10;99.90;;;;;;6240355;23;20228;-94
2022/03/16 12:23:52;;;;;;;5.90;1.43;;;6.10;99.90;;;;;;6233534;23;20235;-93
2022/03/16 12:26:30;;;;;;;6.73;1.43;;;6.20;99.90;;;;;;6226570;23;20184;-94
2022/03/16 12:29:05;;;;;;;4.50;1.30;;;6.10;99.90;;;;;;6226276;23;20226;-93
2022/03/16 12:31:42;;;;;;;8.07;1.63;;;6.10;99.90;;;;;;6236522;23;20222;-92
2022/03/16 12:34:18;;;;;;;7.47;1.73;;;6.10;99.90;;;;;;6237570;23;20180;-93
2022/03/16 12:36:50;;;;;;;6.90;1.77;;;6.10;99.90;;;;;;6239038;23;20246;-92
2022/03/16 12:39:21;;;;;;;4.90;1.50;;;6.20;99.90;;;;;;6237961;23;20220;-93
2022/03/16 12:44:45;;;;;;;4.70;1.40;;;6.20;99.90;;;;;;6240147;23;20173;-93
2022/03/16 12:47:28;;;;;;;7.03;1.30;;;6.20;99.90;;;;;;6228836;23;20188;-93
2022/03/16 12:50:02;;;;;;;6.90;1.37;;;6.20;99.90;;;;;;6225693;23;20177;-92
2022/03/16 12:52:34;;;;;;;7.27;1.33;;;6.20;99.90;;;;;;6225830;23;20627;-92
2022/03/16 12:55:11;;;;;;;9.17;1.47;;;6.20;99.90;;;;;;6225308;23;20173;-92
2022/03/16 12:57:56;;;;;;;7.50;1.37;;;6.20;99.90;;;;;;6223504;23;20196;-94
2022/03/16 13:00:39;;;;;;;7.43;1.50;;;6.10;99.90;;;;;;6223135;23;20183;-93
2022/03/16 13:03:17;;;;;;;3.57;1.20;;;6.20;99.90;;;;;;6221018;23;20183;-94
2022/03/16 13:05:49;;;;;;;7.53;1.70;;;6.20;99.90;;;;;;6220512;23;20204;-92
2022/03/16 13:08:20;;;;;;;7.60;1.67;;;6.20;99.90;;;;;;6218952;23;20183;-94
2022/03/16 13:11:17;;;;;;;9.10;2.03;;;6.20;99.90;;;;;;6219899;23;20542;-94
2022/03/16 13:14:02;;;;;;;5.37;1.40;;;6.20;99.90;;;;;;6203695;23;20240;-93
2022/03/16 13:16:35;;;;;;;9.70;1.80;;;6.20;99.90;;;;;;6219400;23;20173;-93
2022/03/16 13:19:08;;;;;;;7.63;1.50;;;6.20;99.90;;;;;;6227708;23;20214;-91
2022/03/16 13:21:40;;;;;;;6.90;1.57;;;6.20;99.90;;;;;;6240758;23;20159;-93
2022/03/16 13:24:11;;;;;;;7.23;2.27;;;6.20;99.90;;;;;;6241507;23;20188;-92
2022/03/16 13:26:44;;;;;;;8.33;2.10;;;6.30;99.90;;;;;;6234465;23;20177;-92
2022/03/16 13:29:18;;;;;;;6.87;1.43;;;6.30;99.90;;;;;;6230698;23;20188;-95
2022/03/16 13:31:54;;;;;;;7.70;1.93;;;6.30;99.90;;;;;;6242040;23;20236;-92
2022/03/16 13:34:27;;;;;;;6.07;1.63;;;6.40;99.90;;;;;;6241816;23;20168;-94
2022/03/16 13:36:59;;;;;;;4.83;1.27;;;6.30;99.90;;;;;;6227102;23;20619;-95
2022/03/16 13:39:31;;;;;;;6.10;1.50;;;6.30;99.90;;;;;;6220293;23;20413;-93
2022/03/16 13:42:16;;;;;;;7.93;1.90;;;6.30;99.90;;;;;;6220120;23;20169;-94
2022/03/16 13:44:53;;;;;;;9.00;1.77;;;6.20;99.90;;;;;;6219825;23;20191;-92
2022/03/16 13:47:26;;;;;;;9.67;2.03;;;6.20;99.90;;;;;;6217958;23;20240;-93
2022/03/16 13:49:58;;;;;;;9.10;1.77;;;6.20;99.90;;;;;;6218970;23;20165;-93
2022/03/16 13:52:30;;;;;;;10.83;1.90;;;6.30;99.90;;;;;;6220967;23;20208;-92
2022/03/16 13:55:11;;;;;;;8.33;1.60;;;6.30;99.90;;;;;;6223523;23;20168;-92
2022/03/16 13:57:46;;;;;;;10.00;1.77;;;6.30;99.90;;;;;;6228495;23;20196;-92
2022/03/16 14:00:22;;;;;;;8.87;2.00;;;6.30;99.90;;;;;;6238802;23;20770;-93
2022/03/16 14:03:11;;;;;;;9.73;2.00;;;6.30;99.90;;;;;;6230312;23;20180;-93
2022/03/16 14:05:43;;;;;;;7.53;1.90;;;6.30;99.90;;;;;;6223172;23;20173;-93
2022/03/16 14:08:13;;;;;;;8.93;1.70;;;6.30;99.90;;;;;;6222061;23;20180;-94
2022/03/16 14:13:13;;;;;;;6.87;1.90;;;6.20;99.90;;;;;;6221931;23;20176;-92
2022/03/16 14:15:46;;;;;;;8.70;2.30;;;6.20;99.90;;;;;;6221537;23;20194;-93
2022/03/16 14:18:19;;;;;;;9.73;1.53;;;6.20;99.90;;;;;;6202731;23;20197;-92
2022/03/16 14:20:53;;;;;;;8.33;1.47;;;6.20;99.90;;;;;;6232759;23;20169;-93